createdAt,value
2022-10-12T00:02:06.368Z,13.10
2022-10-12T00:04:38.649Z,15.40
2022-10-12T00:07:10.925Z,13.40
2022-10-12T00:09:43.270Z,12.80
2022-10-12T00:12:15.486Z,12.20
2022-10-12T00:14:47.793Z,16.20
2022-10-12T00:17:20.084Z,16.00
2022-10-12T00:19:52.793Z,15.00
2022-10-12T00:22:25.038Z,17.90
2022-10-12T00:24:57.400Z,18.60
2022-10-12T00:27:29.691Z,21.70
2022-10-12T00:30:02.055Z,14.90
2022-10-12T00:32:34.737Z,16.50
2022-10-12T00:35:07.932Z,14.20
2022-10-12T00:37:40.385Z,12.10
2022-10-12T00:40:14.763Z,11.90
2022-10-12T00:42:49.253Z,12.20
2022-10-12T00:45:24.837Z,10.90
2022-10-12T00:48:00.491Z,11.60
2022-10-12T00:50:35.520Z,11.40
2022-10-12T00:53:11.040Z,13.60
2022-10-12T00:55:50.820Z,12.20
2022-10-12T00:58:23.620Z,17.30
2022-10-12T01:00:56.049Z,15.80
2022-10-12T01:03:28.468Z,21.20
2022-10-12T01:06:01.632Z,31.40
2022-10-12T01:08:34.401Z,77.90
2022-10-12T01:11:06.872Z,37.80
2022-10-12T01:13:39.268Z,49.10
2022-10-12T01:16:20.943Z,69.90
2022-10-12T01:19:04.038Z,49.60
2022-10-12T01:21:42.165Z,34.40
2022-10-12T01:24:40.842Z,69.60
2022-10-12T01:27:28.946Z,75.40
2022-10-12T01:30:22.039Z,38.00
2022-10-12T01:33:09.984Z,18.80
2022-10-12T01:35:50.487Z,21.00
2022-10-12T01:38:35.967Z,97.90
2022-10-12T01:43:43.967Z,133.00
2022-10-12T01:46:42.541Z,160.90
2022-10-12T01:49:17.189Z,53.70
2022-10-12T01:52:08.880Z,50.00
2022-10-12T01:54:54.918Z,151.20
2022-10-12T01:57:36.223Z,27.60
2022-10-12T02:00:11.751Z,24.30
2022-10-12T02:02:55.337Z,20.50
2022-10-12T02:05:35.597Z,45.50
2022-10-12T02:08:14.404Z,51.80
2022-10-12T02:10:54.864Z,25.80
2022-10-12T02:13:31.501Z,19.40
2022-10-12T02:16:08.460Z,18.40
2022-10-12T02:18:44.260Z,20.20
2022-10-12T02:21:21.912Z,27.60
2022-10-12T02:23:57.791Z,51.90
2022-10-12T02:26:31.504Z,30.00
2022-10-12T02:29:07.725Z,30.70
2022-10-12T02:31:47.167Z,22.60
2022-10-12T02:34:23.799Z,17.00
2022-10-12T02:37:06.432Z,20.70
2022-10-12T02:39:46.550Z,19.20
2022-10-12T02:42:23.134Z,16.90
2022-10-12T02:44:56.986Z,15.60
2022-10-12T02:47:33.959Z,17.60
2022-10-12T02:50:09.373Z,16.60
2022-10-12T02:52:42.080Z,16.10
2022-10-12T02:55:15.075Z,16.50
2022-10-12T02:57:47.548Z,14.40
2022-10-12T03:00:21.211Z,13.70
2022-10-12T03:02:53.544Z,16.40
2022-10-12T03:05:25.858Z,13.40
2022-10-12T03:07:58.177Z,18.90
2022-10-12T03:10:30.507Z,20.60
2022-10-12T03:13:02.816Z,19.10
2022-10-12T03:15:35.092Z,15.90
2022-10-12T03:18:07.550Z,17.20
2022-10-12T03:20:39.872Z,18.10
2022-10-12T03:23:12.261Z,32.20
2022-10-12T03:25:44.625Z,32.50
2022-10-12T03:28:16.990Z,29.00
2022-10-12T03:30:49.429Z,25.50
2022-10-12T03:33:21.687Z,24.50
2022-10-12T03:35:54.124Z,19.10
2022-10-12T03:38:26.397Z,16.70
2022-10-12T03:41:01.784Z,17.60
2022-10-12T03:43:38.533Z,19.60
2022-10-12T03:46:10.777Z,19.50
2022-10-12T03:48:43.424Z,18.20
2022-10-12T03:51:15.785Z,17.20
2022-10-12T03:53:48.084Z,16.30
2022-10-12T03:56:20.324Z,15.90
2022-10-12T03:58:52.601Z,15.60
2022-10-12T04:01:25.859Z,17.90
2022-10-12T04:03:58.370Z,21.00
2022-10-12T04:06:30.556Z,18.80
2022-10-12T04:09:02.825Z,16.70
2022-10-12T04:11:35.185Z,14.80
2022-10-12T04:14:07.377Z,13.30
2022-10-12T04:16:39.639Z,10.90
2022-10-12T04:19:14.204Z,13.70
2022-10-12T04:21:46.493Z,13.30
2022-10-12T04:24:18.781Z,13.30
2022-10-12T04:26:51.060Z,15.70
2022-10-12T04:29:23.422Z,14.70
2022-10-12T04:31:55.581Z,12.00
2022-10-12T04:34:27.905Z,11.60
2022-10-12T04:37:00.109Z,16.80
2022-10-12T04:39:32.648Z,21.40
2022-10-12T04:42:06.995Z,18.40
2022-10-12T04:44:39.220Z,16.80
2022-10-12T04:47:11.445Z,14.30
2022-10-12T04:49:43.923Z,14.30
2022-10-12T04:52:16.157Z,14.30
2022-10-12T04:54:48.571Z,13.70
2022-10-12T04:57:20.993Z,13.60
2022-10-12T04:59:53.293Z,36.50
2022-10-12T05:02:25.496Z,105.90
2022-10-12T05:04:58.240Z,60.60
2022-10-12T05:07:30.415Z,37.70
2022-10-12T05:10:02.713Z,20.70
2022-10-12T05:12:35.067Z,25.30
2022-10-12T05:15:09.080Z,22.70
2022-10-12T05:17:41.448Z,22.90
2022-10-12T05:20:15.150Z,22.10
2022-10-12T05:22:47.384Z,28.70
2022-10-12T05:25:20.684Z,28.10
2022-10-12T05:27:52.878Z,25.60
2022-10-12T05:30:25.472Z,34.00
2022-10-12T05:32:57.764Z,34.50
2022-10-12T05:35:30.084Z,34.80
2022-10-12T05:38:02.504Z,31.50
2022-10-12T05:40:34.827Z,49.20
2022-10-12T05:43:07.165Z,48.80
2022-10-12T05:45:39.656Z,34.60
2022-10-12T05:48:11.916Z,23.60
2022-10-12T05:50:44.128Z,15.80
2022-10-12T05:53:16.372Z,14.60
2022-10-12T05:55:56.880Z,16.20
2022-10-12T05:58:30.813Z,20.70
2022-10-12T06:01:10.464Z,18.90
2022-10-12T06:03:42.972Z,17.70
2022-10-12T06:06:15.192Z,20.00
2022-10-12T06:08:47.489Z,16.80
2022-10-12T06:11:19.873Z,15.60
2022-10-12T06:13:52.109Z,15.70
2022-10-12T06:16:24.381Z,15.20
2022-10-12T06:18:56.643Z,13.80
2022-10-12T06:21:33.481Z,15.30
2022-10-12T06:24:07.506Z,19.60
2022-10-12T06:26:39.801Z,21.60
2022-10-12T06:29:12.491Z,17.60
2022-10-12T06:31:48.930Z,13.90
2022-10-12T06:34:22.899Z,14.40
2022-10-12T06:36:59.473Z,14.40
2022-10-12T06:39:33.872Z,12.60
2022-10-12T06:42:07.781Z,12.20
2022-10-12T06:44:41.006Z,11.50
2022-10-12T06:47:13.353Z,10.80
2022-10-12T06:49:45.570Z,10.80
2022-10-12T06:52:17.833Z,15.00
2022-10-12T06:54:50.044Z,12.80
2022-10-12T06:57:22.320Z,12.00
2022-10-12T06:59:54.535Z,11.70
2022-10-12T07:02:26.822Z,11.90
2022-10-12T07:04:59.058Z,12.00
2022-10-12T07:07:32.873Z,11.20
2022-10-12T07:10:07.599Z,11.20
2022-10-12T07:12:40.534Z,10.60
2022-10-12T07:15:14.145Z,9.80
2022-10-12T07:17:46.410Z,10.80
2022-10-12T07:20:18.784Z,10.00
2022-10-12T07:22:51.071Z,11.50
2022-10-12T07:25:23.365Z,9.30
2022-10-12T07:27:55.683Z,10.50
2022-10-12T07:30:27.975Z,10.10
2022-10-12T07:33:00.197Z,9.60
2022-10-12T07:35:32.509Z,9.80
2022-10-12T07:38:05.380Z,9.60
2022-10-12T07:40:38.227Z,8.30
2022-10-12T07:43:16.109Z,8.20
2022-10-12T07:45:48.977Z,7.50
2022-10-12T07:48:21.260Z,7.20
2022-10-12T07:50:53.541Z,7.30
2022-10-12T07:53:25.813Z,6.90
2022-10-12T07:56:04.278Z,6.90
2022-10-12T07:58:36.660Z,5.80
2022-10-12T08:01:11.345Z,6.60
2022-10-12T08:03:43.734Z,7.20
2022-10-12T08:06:18.314Z,8.40
2022-10-12T08:08:50.907Z,6.00
2022-10-12T08:11:23.399Z,6.60
2022-10-12T08:13:56.381Z,5.80
2022-10-12T08:16:28.573Z,6.00
2022-10-12T08:19:02.727Z,5.80
2022-10-12T08:21:34.989Z,5.00
2022-10-12T08:24:09.513Z,5.90
2022-10-12T08:26:42.041Z,7.10
2022-10-12T08:29:14.227Z,5.50
2022-10-12T08:31:46.514Z,6.90
2022-10-12T08:34:18.868Z,5.90
2022-10-12T08:36:51.981Z,5.70
2022-10-12T08:39:24.367Z,5.20
2022-10-12T08:42:08.134Z,6.00
2022-10-12T08:45:07.915Z,5.70
2022-10-12T08:47:44.033Z,7.20
2022-10-12T08:50:31.101Z,5.40
2022-10-12T08:53:12.905Z,5.80
2022-10-12T08:55:47.315Z,6.20
2022-10-12T08:58:21.934Z,6.60
2022-10-12T09:00:58.624Z,6.10
2022-10-12T09:03:44.288Z,4.80
2022-10-12T09:06:19.965Z,5.20
2022-10-12T09:09:06.377Z,5.40
2022-10-12T09:11:53.186Z,5.40
2022-10-12T09:14:28.703Z,6.10
2022-10-12T09:17:04.001Z,5.40
2022-10-12T09:19:42.009Z,4.70
2022-10-12T09:22:19.683Z,5.20
2022-10-12T09:24:53.087Z,4.60
2022-10-12T09:27:25.448Z,5.70
2022-10-12T09:30:03.342Z,6.60
2022-10-12T09:33:00.776Z,5.00
2022-10-12T09:35:33.670Z,5.20
2022-10-12T09:38:07.392Z,4.00
2022-10-12T09:40:40.396Z,5.30
2022-10-12T09:43:12.931Z,8.00
2022-10-12T09:45:45.259Z,5.10
2022-10-12T09:48:20.858Z,4.40
2022-10-12T09:50:55.801Z,5.10
2022-10-12T09:53:36.154Z,4.20
2022-10-12T09:56:16.081Z,3.90
2022-10-12T09:58:55.341Z,3.50
2022-10-12T10:01:29.911Z,4.40
2022-10-12T10:04:15.285Z,3.50
2022-10-12T10:06:48.494Z,2.40
2022-10-12T10:09:32.316Z,2.60
2022-10-12T10:12:22.976Z,2.00
2022-10-12T10:14:57.919Z,2.40
2022-10-12T10:17:33.787Z,2.40
2022-10-12T10:20:23.795Z,2.90
2022-10-12T10:22:56.368Z,33.50
2022-10-12T10:25:29.515Z,46.90
2022-10-12T10:28:30.023Z,11.20
2022-10-12T10:31:04.961Z,4.40
2022-10-12T10:36:14.955Z,3.60
2022-10-12T10:38:59.218Z,3.20
2022-10-12T10:41:39.624Z,3.30
2022-10-12T10:44:25.651Z,4.20
2022-10-12T10:47:02.401Z,3.80
2022-10-12T10:49:42.386Z,3.40
2022-10-12T10:52:25.076Z,3.60
2022-10-12T10:55:20.340Z,2.60
2022-10-12T10:58:02.306Z,3.30
2022-10-12T11:00:39.698Z,2.90
2022-10-12T11:06:08.429Z,2.20
2022-10-12T11:08:42.858Z,2.20
2022-10-12T11:11:19.951Z,2.60
2022-10-12T11:13:59.348Z,2.00
2022-10-12T11:16:35.537Z,2.20
2022-10-12T11:19:21.200Z,2.00
2022-10-12T11:21:57.186Z,3.40
2022-10-12T11:24:34.746Z,3.30
2022-10-12T11:27:13.724Z,3.50
2022-10-12T11:29:54.119Z,3.50
2022-10-12T11:32:40.012Z,3.40
2022-10-12T11:35:18.729Z,3.10
2022-10-12T11:37:55.207Z,2.50
2022-10-12T11:40:55.620Z,8.20
2022-10-12T11:46:03.021Z,4.20
2022-10-12T11:48:40.895Z,3.60
2022-10-12T11:51:14.177Z,2.90
2022-10-12T11:53:56.231Z,3.50
2022-10-12T11:56:32.719Z,2.90
2022-10-12T11:59:11.853Z,3.30
2022-10-12T12:01:53.993Z,3.90
2022-10-12T12:04:48.275Z,8.70
2022-10-12T12:07:46.476Z,3.10
2022-10-12T12:11:03.747Z,3.20
2022-10-12T12:13:35.991Z,3.90
2022-10-12T12:16:31.874Z,2.30
2022-10-12T12:19:40.175Z,2.50
2022-10-12T12:22:28.839Z,2.00
2022-10-12T12:25:20.246Z,2.80
2022-10-12T12:27:56.058Z,1.90
2022-10-12T12:30:34.396Z,2.00
2022-10-12T12:33:26.462Z,1.90
2022-10-12T12:36:01.797Z,4.50
2022-10-12T12:38:36.888Z,5.10
2022-10-12T12:41:12.872Z,5.50
2022-10-12T12:44:06.168Z,54.20
2022-10-12T12:50:37.579Z,122.10
2022-10-12T12:53:18.355Z,108.20
2022-10-12T12:56:17.483Z,8.90
2022-10-12T12:59:03.552Z,7.50
2022-10-12T13:01:57.293Z,2.90
2022-10-12T13:05:01.547Z,2.80
2022-10-12T13:07:52.055Z,2.50
2022-10-12T13:10:39.645Z,5.80
2022-10-12T13:14:27.169Z,8.00
2022-10-12T13:20:16.997Z,2.10
2022-10-12T13:22:51.556Z,1.60
2022-10-12T13:25:33.849Z,1.60
2022-10-12T13:28:13.811Z,1.80
2022-10-12T13:30:52.553Z,2.00
2022-10-12T13:33:32.610Z,2.40
2022-10-12T13:36:09.787Z,4.10
2022-10-12T13:38:42.201Z,3.80
2022-10-12T13:41:17.390Z,4.60
2022-10-12T13:43:55.584Z,7.30
2022-10-12T13:46:45.623Z,5.20
2022-10-12T13:49:21.490Z,6.60
2022-10-12T13:51:55.884Z,4.60
2022-10-12T13:54:36.017Z,2.60
2022-10-12T13:57:20.149Z,1.90
2022-10-12T13:59:57.811Z,3.60
2022-10-12T14:02:33.916Z,2.70
2022-10-12T14:05:16.933Z,12.90
2022-10-12T14:07:50.841Z,6.90
2022-10-12T14:10:25.755Z,30.00
2022-10-12T14:15:36.081Z,25.50
2022-10-12T14:18:38.500Z,26.70
2022-10-12T14:21:17.517Z,12.90
2022-10-12T14:23:51.979Z,8.40
2022-10-12T14:26:30.562Z,9.30
2022-10-12T14:29:23.063Z,6.80
2022-10-12T14:31:57.090Z,5.10
2022-10-12T14:34:37.753Z,6.30
2022-10-12T14:37:26.514Z,6.20
2022-10-12T14:40:03.327Z,6.30
2022-10-12T14:42:37.059Z,8.00
2022-10-12T14:45:25.777Z,20.30
2022-10-12T14:47:59.752Z,19.40
2022-10-12T14:50:34.054Z,23.00
2022-10-12T14:53:11.608Z,18.50
2022-10-12T14:55:44.464Z,19.90
2022-10-12T14:58:19.668Z,21.40
2022-10-12T15:00:51.958Z,29.40
2022-10-12T15:03:24.160Z,32.90
2022-10-12T15:05:56.359Z,63.40
2022-10-12T15:08:28.625Z,31.50
2022-10-12T15:11:00.779Z,28.90
2022-10-12T15:13:32.928Z,22.80
2022-10-12T15:16:11.359Z,43.20
2022-10-12T15:18:43.449Z,38.50
2022-10-12T15:21:16.277Z,39.70
2022-10-12T15:23:48.737Z,55.40
2022-10-12T15:26:21.029Z,79.90
2022-10-12T15:28:53.171Z,59.80
2022-10-12T15:31:25.365Z,57.40
2022-10-12T15:33:57.592Z,70.20
2022-10-12T15:36:29.728Z,71.70
2022-10-12T15:39:01.847Z,87.80
2022-10-12T15:41:34.328Z,64.40
2022-10-12T15:44:07.320Z,35.60
2022-10-12T15:46:39.489Z,32.40
2022-10-12T15:49:15.121Z,49.00
2022-10-12T15:51:51.746Z,56.30
2022-10-12T15:54:23.931Z,62.50
2022-10-12T15:56:56.087Z,82.70
2022-10-12T15:59:28.437Z,114.10
2022-10-12T16:02:00.931Z,108.80
2022-10-12T16:04:33.092Z,115.10
2022-10-12T16:07:05.219Z,152.90
2022-10-12T16:09:37.396Z,150.10
2022-10-12T16:12:09.778Z,125.20
2022-10-12T16:14:41.994Z,110.20
2022-10-12T16:17:14.538Z,95.80
2022-10-12T16:19:46.945Z,92.30
2022-10-12T16:22:19.181Z,110.90
2022-10-12T16:24:51.372Z,138.90
2022-10-12T16:27:23.468Z,131.80
2022-10-12T16:29:56.446Z,128.50
2022-10-12T16:32:28.685Z,156.60
2022-10-12T16:35:00.829Z,276.20
2022-10-12T16:37:33.155Z,273.20
2022-10-12T16:40:07.262Z,244.10
2022-10-12T16:42:39.387Z,218.30
2022-10-12T16:45:12.553Z,201.30
2022-10-12T16:47:44.695Z,212.60
2022-10-12T16:50:17.012Z,226.10
2022-10-12T16:52:49.403Z,118.30
2022-10-12T16:55:22.187Z,93.20
2022-10-12T16:57:54.340Z,78.20
2022-10-12T17:00:26.786Z,78.60
2022-10-12T17:02:58.906Z,108.00
2022-10-12T17:05:31.177Z,86.40
2022-10-12T17:08:03.429Z,78.80
2022-10-12T17:10:35.588Z,80.00
2022-10-12T17:13:07.989Z,80.80
2022-10-12T17:15:43.796Z,66.40
2022-10-12T17:18:16.214Z,58.60
2022-10-12T17:20:50.743Z,52.40
2022-10-12T17:23:25.110Z,45.00
2022-10-12T17:26:02.500Z,48.20
2022-10-12T17:28:37.581Z,60.50
2022-10-12T17:31:11.902Z,60.00
2022-10-12T17:33:44.285Z,64.50
2022-10-12T17:36:16.846Z,60.50
2022-10-12T17:38:53.319Z,48.90
2022-10-12T17:41:26.298Z,55.50
2022-10-12T17:43:59.003Z,55.20
2022-10-12T17:46:31.164Z,50.40
2022-10-12T17:49:03.875Z,57.40
2022-10-12T17:51:36.121Z,74.40
2022-10-12T17:54:08.435Z,152.30
2022-10-12T17:56:40.605Z,273.30
2022-10-12T17:59:14.941Z,316.00
2022-10-12T18:01:47.484Z,320.20
2022-10-12T18:04:20.139Z,288.10
2022-10-12T18:06:52.412Z,245.00
2022-10-12T18:09:24.797Z,205.70
2022-10-12T18:11:56.963Z,189.50
2022-10-12T18:14:29.239Z,134.50
2022-10-12T18:17:01.561Z,95.70
2022-10-12T18:19:33.807Z,73.00
2022-10-12T18:22:06.008Z,65.80
2022-10-12T18:24:38.239Z,62.50
2022-10-12T18:27:10.429Z,63.50
2022-10-12T18:29:42.719Z,79.60
2022-10-12T18:32:14.983Z,77.30
2022-10-12T18:34:47.545Z,68.80
2022-10-12T18:37:19.797Z,67.10
2022-10-12T18:39:52.286Z,82.90
2022-10-12T18:42:24.455Z,115.60
2022-10-12T18:44:56.937Z,146.30
2022-10-12T18:47:29.186Z,206.40
2022-10-12T18:50:01.548Z,115.40
2022-10-12T18:52:34.134Z,161.90
2022-10-12T18:55:07.184Z,158.80
2022-10-12T18:57:40.253Z,166.00
2022-10-12T19:00:15.398Z,159.10
2022-10-12T19:05:18.362Z,140.40
2022-10-12T19:07:50.637Z,126.30
2022-10-12T19:10:23.072Z,116.20
2022-10-12T19:12:55.248Z,114.30
2022-10-12T19:15:28.653Z,120.00
2022-10-12T19:18:00.840Z,120.10
2022-10-12T19:20:33.611Z,100.60
2022-10-12T19:23:05.860Z,68.80
2022-10-12T19:25:41.108Z,60.00
2022-10-12T19:28:13.343Z,55.70
2022-10-12T19:30:45.601Z,54.20
2022-10-12T19:33:17.755Z,48.40
2022-10-12T19:35:50.197Z,48.80
2022-10-12T19:38:22.842Z,49.00
2022-10-12T19:40:55.045Z,53.50
2022-10-12T19:43:27.860Z,57.30
2022-10-12T19:46:04.947Z,62.70
2022-10-12T19:48:37.348Z,68.60
2022-10-12T19:51:12.169Z,66.50
2022-10-12T19:53:44.607Z,59.90
2022-10-12T19:56:20.961Z,57.80
2022-10-12T19:58:55.451Z,57.50
2022-10-12T20:01:29.760Z,54.10
2022-10-12T20:04:02.694Z,51.50
2022-10-12T20:06:35.251Z,50.00
2022-10-12T20:09:09.061Z,48.50
2022-10-12T20:11:42.279Z,46.90
2022-10-12T20:14:14.548Z,44.60
2022-10-12T20:16:46.921Z,39.70
2022-10-12T20:19:19.309Z,41.30
2022-10-12T20:21:51.804Z,40.10
2022-10-12T20:26:57.646Z,44.80
2022-10-12T20:29:29.931Z,88.90
2022-10-12T20:32:02.340Z,91.00
2022-10-12T20:34:35.062Z,92.90
2022-10-12T20:37:07.368Z,97.90
2022-10-12T20:39:39.612Z,86.00
2022-10-12T20:42:12.081Z,81.70
2022-10-12T20:44:44.616Z,63.90
2022-10-12T20:47:17.766Z,53.10
2022-10-12T20:49:50.321Z,48.60
2022-10-12T20:52:22.646Z,43.00
2022-10-12T20:54:55.282Z,37.00
2022-10-12T20:57:27.561Z,35.40
2022-10-12T20:59:59.737Z,32.90
2022-10-12T21:02:33.519Z,29.60
2022-10-12T21:05:06.036Z,25.50
2022-10-12T21:07:38.521Z,25.00
2022-10-12T21:10:12.240Z,28.40
2022-10-12T21:12:44.363Z,36.60
2022-10-12T21:15:16.930Z,70.40
2022-10-12T21:17:49.228Z,57.50
2022-10-12T21:20:21.590Z,50.00
2022-10-12T21:22:53.870Z,50.20
2022-10-12T21:25:26.445Z,57.80
2022-10-12T21:27:58.724Z,66.80
2022-10-12T21:30:30.927Z,77.40
2022-10-12T21:33:02.984Z,88.80
2022-10-12T21:35:35.545Z,100.60
2022-10-12T21:38:08.145Z,95.30
2022-10-12T21:40:40.378Z,83.70
2022-10-12T21:43:12.698Z,88.00
2022-10-12T21:45:44.843Z,97.90
2022-10-12T21:48:16.983Z,102.60
2022-10-12T21:50:49.164Z,100.90
2022-10-12T21:53:21.373Z,122.50
2022-10-12T21:55:53.904Z,118.60
2022-10-12T21:58:26.078Z,95.60
2022-10-12T22:01:08.638Z,85.40
2022-10-12T22:03:40.979Z,66.70
2022-10-12T22:06:18.033Z,64.00
2022-10-12T22:08:55.120Z,67.30
2022-10-12T22:11:29.674Z,86.50
2022-10-12T22:14:03.988Z,93.40
2022-10-12T22:16:37.898Z,83.50
2022-10-12T22:19:14.451Z,52.70
2022-10-12T22:21:47.208Z,45.80
2022-10-12T22:24:19.513Z,49.70
2022-10-12T22:26:51.928Z,52.00
2022-10-12T22:29:24.111Z,46.80
2022-10-12T22:31:56.282Z,45.10
2022-10-12T22:34:28.681Z,41.70
2022-10-12T22:37:00.948Z,34.50
2022-10-12T22:39:33.191Z,32.40
2022-10-12T22:42:05.371Z,29.50
2022-10-12T22:44:37.482Z,24.70
2022-10-12T22:47:09.943Z,22.20
2022-10-12T22:49:42.148Z,21.10
2022-10-12T22:52:14.490Z,27.20
2022-10-12T22:54:50.039Z,24.90
2022-10-12T22:57:22.196Z,22.20
2022-10-12T22:59:54.457Z,18.60
2022-10-12T23:02:26.624Z,16.30
2022-10-12T23:04:58.761Z,16.50
2022-10-12T23:07:30.880Z,14.60
2022-10-12T23:10:03.092Z,14.50
2022-10-12T23:12:36.039Z,15.50
2022-10-12T23:15:09.893Z,18.30
2022-10-12T23:17:42.094Z,27.70
2022-10-12T23:20:14.745Z,27.20
2022-10-12T23:22:47.622Z,28.60
2022-10-12T23:25:19.977Z,28.10
2022-10-12T23:27:52.232Z,25.50
2022-10-12T23:30:24.529Z,24.50
2022-10-12T23:32:56.723Z,21.50
2022-10-12T23:35:31.380Z,20.10
2022-10-12T23:38:03.739Z,20.10
2022-10-12T23:40:37.833Z,25.50
2022-10-12T23:43:11.808Z,28.40
2022-10-12T23:45:45.715Z,28.90
2022-10-12T23:48:17.968Z,33.00
2022-10-12T23:50:52.076Z,35.60
2022-10-12T23:53:25.955Z,30.30
2022-10-12T23:55:58.136Z,27.30
2022-10-12T23:58:30.370Z,25.30
